sensor_id;sensor_type;location;lat;lon;timestamp;P1;durP1;ratioP1;P2;durP2;ratioP2
8887;SDS011;4480;52.370;9.748;2023-04-25T00:01:26;7.90;;;4.10;;
8887;SDS011;4480;52.370;9.748;2023-04-25T00:03:53;10.05;;;4.25;;
8887;SDS011;4480;52.370;9.748;2023-04-25T00:06:21;8.52;;;3.67;;
8887;SDS011;4480;52.370;9.748;2023-04-25T00:08:51;10.05;;;4.60;;
8887;SDS011;4480;52.370;9.748;2023-04-25T00:11:18;13.25;;;4.85;;
8887;SDS011;4480;52.370;9.748;2023-04-25T00:13:44;14.52;;;5.28;;
8887;SDS011;4480;52.370;9.748;2023-04-25T00:16:11;7.10;;;4.25;;
8887;SDS011;4480;52.370;9.748;2023-04-25T00:18:41;9.05;;;4.57;;
8887;SDS011;4480;52.370;9.748;2023-04-25T00:21:08;9.98;;;5.40;;
8887;SDS011;4480;52.370;9.748;2023-04-25T00:23:36;9.32;;;5.88;;
8887;SDS011;4480;52.370;9.748;2023-04-25T00:26:03;8.20;;;4.20;;
8887;SDS011;4480;52.370;9.748;2023-04-25T00:28:30;6.05;;;3.90;;
8887;SDS011;4480;52.370;9.748;2023-04-25T00:30:57;10.40;;;4.65;;
8887;SDS011;4480;52.370;9.748;2023-04-25T00:33:24;8.93;;;4.35;;
8887;SDS011;4480;52.370;9.748;2023-04-25T00:35:51;9.95;;;4.70;;
8887;SDS011;4480;52.370;9.748;2023-04-25T00:38:18;10.95;;;5.00;;
8887;SDS011;4480;52.370;9.748;2023-04-25T00:40:46;9.75;;;4.22;;
8887;SDS011;4480;52.370;9.748;2023-04-25T00:43:13;10.63;;;4.15;;
8887;SDS011;4480;52.370;9.748;2023-04-25T00:45:39;8.68;;;4.10;;
8887;SDS011;4480;52.370;9.748;2023-04-25T00:48:06;8.50;;;4.30;;
8887;SDS011;4480;52.370;9.748;2023-04-25T00:50:33;11.82;;;4.30;;
8887;SDS011;4480;52.370;9.748;2023-04-25T00:53:01;7.75;;;4.35;;
8887;SDS011;4480;52.370;9.748;2023-04-25T00:55:29;11.25;;;4.38;;
8887;SDS011;4480;52.370;9.748;2023-04-25T00:57:58;6.18;;;3.80;;
8887;SDS011;4480;52.370;9.748;2023-04-25T01:00:25;7.95;;;4.53;;
8887;SDS011;4480;52.370;9.748;2023-04-25T01:02:52;6.82;;;4.40;;
8887;SDS011;4480;52.370;9.748;2023-04-25T01:05:19;9.30;;;4.47;;
8887;SDS011;4480;52.370;9.748;2023-04-25T01:07:46;8.10;;;4.93;;
8887;SDS011;4480;52.370;9.748;2023-04-25T01:10:13;6.68;;;3.67;;
8887;SDS011;4480;52.370;9.748;2023-04-25T01:12:40;8.70;;;4.63;;
8887;SDS011;4480;52.370;9.748;2023-04-25T01:15:08;6.32;;;4.70;;
8887;SDS011;4480;52.370;9.748;2023-04-25T01:17:35;8.60;;;5.07;;
8887;SDS011;4480;52.370;9.748;2023-04-25T01:20:03;9.05;;;4.20;;
8887;SDS011;4480;52.370;9.748;2023-04-25T01:22:31;10.90;;;4.70;;
8887;SDS011;4480;52.370;9.748;2023-04-25T01:24:59;8.68;;;4.97;;
8887;SDS011;4480;52.370;9.748;2023-04-25T01:27:27;9.82;;;4.95;;
8887;SDS011;4480;52.370;9.748;2023-04-25T01:29:54;6.30;;;4.40;;
8887;SDS011;4480;52.370;9.748;2023-04-25T01:32:21;10.93;;;5.90;;
8887;SDS011;4480;52.370;9.748;2023-04-25T01:34:50;5.97;;;5.13;;
8887;SDS011;4480;52.370;9.748;2023-04-25T01:37:16;7.20;;;4.85;;
8887;SDS011;4480;52.370;9.748;2023-04-25T01:39:45;10.20;;;5.07;;
8887;SDS011;4480;52.370;9.748;2023-04-25T01:42:12;9.55;;;4.78;;
8887;SDS011;4480;52.370;9.748;2023-04-25T01:44:39;8.85;;;5.13;;
8887;SDS011;4480;52.370;9.748;2023-04-25T01:47:06;11.43;;;5.32;;
8887;SDS011;4480;52.370;9.748;2023-04-25T01:49:32;8.90;;;4.88;;
8887;SDS011;4480;52.370;9.748;2023-04-25T01:51:59;15.80;;;5.20;;
8887;SDS011;4480;52.370;9.748;2023-04-25T01:54:26;7.70;;;4.90;;
8887;SDS011;4480;52.370;9.748;2023-04-25T01:56:55;7.70;;;5.15;;
8887;SDS011;4480;52.370;9.748;2023-04-25T01:59:23;12.85;;;6.13;;
8887;SDS011;4480;52.370;9.748;2023-04-25T02:01:50;9.70;;;5.38;;
8887;SDS011;4480;52.370;9.748;2023-04-25T02:04:17;10.75;;;5.50;;
8887;SDS011;4480;52.370;9.748;2023-04-25T02:06:43;7.38;;;4.53;;
8887;SDS011;4480;52.370;9.748;2023-04-25T02:09:10;9.95;;;5.20;;
8887;SDS011;4480;52.370;9.748;2023-04-25T02:11:37;9.10;;;5.53;;
8887;SDS011;4480;52.370;9.748;2023-04-25T02:14:06;8.98;;;5.25;;
8887;SDS011;4480;52.370;9.748;2023-04-25T02:16:32;6.25;;;5.65;;
8887;SDS011;4480;52.370;9.748;2023-04-25T02:19:00;10.52;;;6.53;;
8887;SDS011;4480;52.370;9.748;2023-04-25T02:21:27;12.80;;;5.25;;
8887;SDS011;4480;52.370;9.748;2023-04-25T02:23:55;10.20;;;5.05;;
8887;SDS011;4480;52.370;9.748;2023-04-25T02:26:22;10.07;;;5.88;;
8887;SDS011;4480;52.370;9.748;2023-04-25T02:28:49;8.05;;;3.67;;
8887;SDS011;4480;52.370;9.748;2023-04-25T02:31:17;9.75;;;4.15;;
8887;SDS011;4480;52.370;9.748;2023-04-25T02:33:44;9.32;;;4.95;;
8887;SDS011;4480;52.370;9.748;2023-04-25T02:36:11;7.30;;;4.50;;
8887;SDS011;4480;52.370;9.748;2023-04-25T02:38:38;10.32;;;5.65;;
8887;SDS011;4480;52.370;9.748;2023-04-25T02:41:05;8.70;;;3.83;;
8887;SDS011;4480;52.370;9.748;2023-04-25T02:43:32;6.20;;;4.57;;
8887;SDS011;4480;52.370;9.748;2023-04-25T02:45:58;5.20;;;3.45;;
8887;SDS011;4480;52.370;9.748;2023-04-25T02:48:27;10.95;;;4.40;;
8887;SDS011;4480;52.370;9.748;2023-04-25T02:50:54;8.32;;;4.10;;
8887;SDS011;4480;52.370;9.748;2023-04-25T02:53:21;12.25;;;5.53;;
8887;SDS011;4480;52.370;9.748;2023-04-25T02:55:47;8.82;;;4.25;;
8887;SDS011;4480;52.370;9.748;2023-04-25T02:58:14;11.60;;;3.83;;
8887;SDS011;4480;52.370;9.748;2023-04-25T03:00:42;8.40;;;3.67;;
8887;SDS011;4480;52.370;9.748;2023-04-25T03:03:08;10.38;;;3.70;;
8887;SDS011;4480;52.370;9.748;2023-04-25T03:05:37;11.80;;;4.13;;
8887;SDS011;4480;52.370;9.748;2023-04-25T03:08:03;8.90;;;3.72;;
8887;SDS011;4480;52.370;9.748;2023-04-25T03:10:30;9.40;;;4.15;;
8887;SDS011;4480;52.370;9.748;2023-04-25T03:12:57;8.32;;;4.00;;
8887;SDS011;4480;52.370;9.748;2023-04-25T03:15:24;14.90;;;5.15;;
8887;SDS011;4480;52.370;9.748;2023-04-25T03:17:50;16.65;;;3.78;;
8887;SDS011;4480;52.370;9.748;2023-04-25T03:20:17;11.73;;;4.05;;
8887;SDS011;4480;52.370;9.748;2023-04-25T03:22:45;12.32;;;3.97;;
8887;SDS011;4480;52.370;9.748;2023-04-25T03:25:12;8.02;;;4.30;;
8887;SDS011;4480;52.370;9.748;2023-04-25T03:27:39;8.70;;;4.55;;
8887;SDS011;4480;52.370;9.748;2023-04-25T03:30:06;18.65;;;3.78;;
8887;SDS011;4480;52.370;9.748;2023-04-25T03:32:33;12.52;;;3.70;;
8887;SDS011;4480;52.370;9.748;2023-04-25T03:35:00;11.55;;;3.80;;
8887;SDS011;4480;52.370;9.748;2023-04-25T03:37:27;8.90;;;3.33;;
8887;SDS011;4480;52.370;9.748;2023-04-25T03:39:55;10.30;;;3.55;;
8887;SDS011;4480;52.370;9.748;2023-04-25T03:42:21;9.93;;;4.10;;
8887;SDS011;4480;52.370;9.748;2023-04-25T03:44:48;12.20;;;4.53;;
8887;SDS011;4480;52.370;9.748;2023-04-25T03:47:15;9.82;;;3.92;;
8887;SDS011;4480;52.370;9.748;2023-04-25T03:49:42;7.88;;;3.78;;
8887;SDS011;4480;52.370;9.748;2023-04-25T03:52:09;10.90;;;4.00;;
8887;SDS011;4480;52.370;9.748;2023-04-25T03:54:36;9.50;;;4.88;;
8887;SDS011;4480;52.370;9.748;2023-04-25T03:57:04;21.20;;;4.85;;
8887;SDS011;4480;52.370;9.748;2023-04-25T03:59:31;14.77;;;5.15;;
8887;SDS011;4480;52.370;9.748;2023-04-25T04:01:57;10.63;;;4.57;;
8887;SDS011;4480;52.370;9.748;2023-04-25T04:04:24;5.32;;;4.07;;
8887;SDS011;4480;52.370;9.748;2023-04-25T04:06:51;9.52;;;4.20;;
8887;SDS011;4480;52.370;9.748;2023-04-25T04:11:36;11.63;;;3.78;;
8887;SDS011;4480;52.370;9.748;2023-04-25T04:14:04;15.85;;;3.90;;
8887;SDS011;4480;52.370;9.748;2023-04-25T04:16:31;14.43;;;4.60;;
8887;SDS011;4480;52.370;9.748;2023-04-25T04:18:57;12.50;;;3.80;;
8887;SDS011;4480;52.370;9.748;2023-04-25T04:21:24;14.38;;;4.30;;
8887;SDS011;4480;52.370;9.748;2023-04-25T04:23:51;21.73;;;5.03;;
8887;SDS011;4480;52.370;9.748;2023-04-25T04:26:19;13.52;;;4.93;;
8887;SDS011;4480;52.370;9.748;2023-04-25T04:28:49;14.77;;;4.10;;
8887;SDS011;4480;52.370;9.748;2023-04-25T04:31:16;11.20;;;4.63;;
8887;SDS011;4480;52.370;9.748;2023-04-25T04:33:44;14.35;;;4.28;;
8887;SDS011;4480;52.370;9.748;2023-04-25T04:36:11;11.43;;;4.05;;
8887;SDS011;4480;52.370;9.748;2023-04-25T04:38:38;17.15;;;4.38;;
8887;SDS011;4480;52.370;9.748;2023-04-25T04:41:06;13.85;;;4.40;;
8887;SDS011;4480;52.370;9.748;2023-04-25T04:43:33;14.20;;;4.72;;
8887;SDS011;4480;52.370;9.748;2023-04-25T04:46:01;15.98;;;4.05;;
8887;SDS011;4480;52.370;9.748;2023-04-25T04:48:28;14.07;;;4.22;;
8887;SDS011;4480;52.370;9.748;2023-04-25T04:50:57;24.23;;;4.47;;
8887;SDS011;4480;52.370;9.748;2023-04-25T04:53:24;9.68;;;4.15;;
8887;SDS011;4480;52.370;9.748;2023-04-25T04:55:51;8.13;;;4.43;;
8887;SDS011;4480;52.370;9.748;2023-04-25T04:58:17;12.40;;;4.20;;
8887;SDS011;4480;52.370;9.748;2023-04-25T05:00:44;16.30;;;5.13;;
8887;SDS011;4480;52.370;9.748;2023-04-25T05:03:12;10.35;;;4.13;;
8887;SDS011;4480;52.370;9.748;2023-04-25T05:05:39;12.73;;;3.50;;
8887;SDS011;4480;52.370;9.748;2023-04-25T05:08:07;21.33;;;4.72;;
8887;SDS011;4480;52.370;9.748;2023-04-25T05:10:33;16.15;;;5.13;;
8887;SDS011;4480;52.370;9.748;2023-04-25T05:13:00;12.35;;;4.28;;
8887;SDS011;4480;52.370;9.748;2023-04-25T05:15:27;12.55;;;3.50;;
8887;SDS011;4480;52.370;9.748;2023-04-25T05:17:54;11.88;;;3.90;;
8887;SDS011;4480;52.370;9.748;2023-04-25T05:20:23;8.82;;;4.00;;
8887;SDS011;4480;52.370;9.748;2023-04-25T05:22:49;15.55;;;4.75;;
8887;SDS011;4480;52.370;9.748;2023-04-25T05:25:16;12.15;;;4.40;;
8887;SDS011;4480;52.370;9.748;2023-04-25T05:27:43;10.38;;;3.72;;
8887;SDS011;4480;52.370;9.748;2023-04-25T05:30:10;16.13;;;4.63;;
8887;SDS011;4480;52.370;9.748;2023-04-25T05:32:37;9.45;;;3.67;;
8887;SDS011;4480;52.370;9.748;2023-04-25T05:35:05;16.08;;;5.88;;
8887;SDS011;4480;52.370;9.748;2023-04-25T05:37:35;7.78;;;4.03;;
8887;SDS011;4480;52.370;9.748;2023-04-25T05:40:02;13.48;;;4.47;;
8887;SDS011;4480;52.370;9.748;2023-04-25T05:42:31;19.98;;;4.78;;
8887;SDS011;4480;52.370;9.748;2023-04-25T05:44:58;11.80;;;3.42;;
8887;SDS011;4480;52.370;9.748;2023-04-25T05:47:25;6.88;;;3.15;;
8887;SDS011;4480;52.370;9.748;2023-04-25T05:49:52;11.23;;;3.30;;
8887;SDS011;4480;52.370;9.748;2023-04-25T05:52:19;7.40;;;3.28;;
8887;SDS011;4480;52.370;9.748;2023-04-25T05:54:47;8.80;;;3.50;;
8887;SDS011;4480;52.370;9.748;2023-04-25T05:57:21;12.55;;;4.40;;
8887;SDS011;4480;52.370;9.748;2023-04-25T05:59:48;7.70;;;3.60;;
8887;SDS011;4480;52.370;9.748;2023-04-25T06:02:15;10.07;;;4.00;;
8887;SDS011;4480;52.370;9.748;2023-04-25T06:04:42;12.30;;;3.70;;
8887;SDS011;4480;52.370;9.748;2023-04-25T06:07:09;9.00;;;3.20;;
8887;SDS011;4480;52.370;9.748;2023-04-25T06:09:36;9.82;;;3.05;;
8887;SDS011;4480;52.370;9.748;2023-04-25T06:12:05;9.15;;;3.88;;
8887;SDS011;4480;52.370;9.748;2023-04-25T06:14:32;8.63;;;3.72;;
8887;SDS011;4480;52.370;9.748;2023-04-25T06:16:59;14.27;;;4.57;;
8887;SDS011;4480;52.370;9.748;2023-04-25T06:19:31;12.05;;;4.45;;
8887;SDS011;4480;52.370;9.748;2023-04-25T06:21:58;9.73;;;3.78;;
8887;SDS011;4480;52.370;9.748;2023-04-25T06:24:24;13.77;;;3.40;;
8887;SDS011;4480;52.370;9.748;2023-04-25T06:26:51;14.45;;;3.78;;
8887;SDS011;4480;52.370;9.748;2023-04-25T06:29:20;17.23;;;3.33;;
8887;SDS011;4480;52.370;9.748;2023-04-25T06:31:47;13.05;;;4.57;;
8887;SDS011;4480;52.370;9.748;2023-04-25T06:34:15;8.82;;;3.70;;
8887;SDS011;4480;52.370;9.748;2023-04-25T06:36:42;10.13;;;3.45;;
8887;SDS011;4480;52.370;9.748;2023-04-25T06:39:10;9.73;;;3.88;;
8887;SDS011;4480;52.370;9.748;2023-04-25T06:41:37;10.98;;;3.60;;
8887;SDS011;4480;52.370;9.748;2023-04-25T06:44:04;12.27;;;3.38;;
8887;SDS011;4480;52.370;9.748;2023-04-25T06:46:33;15.18;;;4.47;;
8887;SDS011;4480;52.370;9.748;2023-04-25T06:49:01;12.68;;;3.33;;
8887;SDS011;4480;52.370;9.748;2023-04-25T06:51:28;12.35;;;3.50;;
8887;SDS011;4480;52.370;9.748;2023-04-25T06:53:55;14.43;;;3.30;;
8887;SDS011;4480;52.370;9.748;2023-04-25T06:56:29;5.88;;;3.08;;
8887;SDS011;4480;52.370;9.748;2023-04-25T06:58:59;7.63;;;3.08;;
8887;SDS011;4480;52.370;9.748;2023-04-25T07:01:26;12.15;;;3.42;;
8887;SDS011;4480;52.370;9.748;2023-04-25T07:03:54;11.13;;;3.65;;
8887;SDS011;4480;52.370;9.748;2023-04-25T07:06:21;12.63;;;3.50;;
8887;SDS011;4480;52.370;9.748;2023-04-25T07:08:48;10.93;;;3.50;;
8887;SDS011;4480;52.370;9.748;2023-04-25T07:11:15;13.27;;;3.95;;
8887;SDS011;4480;52.370;9.748;2023-04-25T07:13:42;6.05;;;2.40;;
8887;SDS011;4480;52.370;9.748;2023-04-25T07:16:08;5.93;;;2.88;;
8887;SDS011;4480;52.370;9.748;2023-04-25T07:18:35;8.30;;;2.60;;
8887;SDS011;4480;52.370;9.748;2023-04-25T07:21:03;5.22;;;2.28;;
8887;SDS011;4480;52.370;9.748;2023-04-25T07:23:30;9.48;;;2.83;;
8887;SDS011;4480;52.370;9.748;2023-04-25T07:25:57;9.70;;;2.92;;
8887;SDS011;4480;52.370;9.748;2023-04-25T07:28:24;7.68;;;2.95;;
8887;SDS011;4480;52.370;9.748;2023-04-25T07:30:51;6.00;;;2.60;;
8887;SDS011;4480;52.370;9.748;2023-04-25T07:33:17;8.95;;;2.95;;
8887;SDS011;4480;52.370;9.748;2023-04-25T07:35:45;8.32;;;3.00;;
8887;SDS011;4480;52.370;9.748;2023-04-25T07:38:13;9.45;;;2.60;;
8887;SDS011;4480;52.370;9.748;2023-04-25T07:40:40;6.67;;;2.17;;
8887;SDS011;4480;52.370;9.748;2023-04-25T07:43:07;7.43;;;2.17;;
8887;SDS011;4480;52.370;9.748;2023-04-25T07:45:34;7.80;;;3.20;;
8887;SDS011;4480;52.370;9.748;2023-04-25T07:48:00;8.95;;;2.67;;
8887;SDS011;4480;52.370;9.748;2023-04-25T07:50:28;6.47;;;2.58;;
8887;SDS011;4480;52.370;9.748;2023-04-25T07:52:55;11.63;;;2.53;;
8887;SDS011;4480;52.370;9.748;2023-04-25T07:55:25;3.30;;;1.48;;
8887;SDS011;4480;52.370;9.748;2023-04-25T07:57:52;6.35;;;2.53;;
8887;SDS011;4480;52.370;9.748;2023-04-25T08:00:18;6.10;;;2.15;;
8887;SDS011;4480;52.370;9.748;2023-04-25T08:02:45;7.70;;;2.85;;
8887;SDS011;4480;52.370;9.748;2023-04-25T08:05:12;7.43;;;3.40;;
8887;SDS011;4480;52.370;9.748;2023-04-25T08:07:40;6.53;;;2.10;;
8887;SDS011;4480;52.370;9.748;2023-04-25T08:10:07;6.78;;;3.45;;
8887;SDS011;4480;52.370;9.748;2023-04-25T08:12:37;6.90;;;2.53;;
8887;SDS011;4480;52.370;9.748;2023-04-25T08:15:05;6.22;;;2.70;;
8887;SDS011;4480;52.370;9.748;2023-04-25T08:17:32;6.75;;;2.47;;
8887;SDS011;4480;52.370;9.748;2023-04-25T08:19:59;4.72;;;2.45;;
8887;SDS011;4480;52.370;9.748;2023-04-25T08:22:26;8.85;;;3.22;;
8887;SDS011;4480;52.370;9.748;2023-04-25T08:24:52;7.03;;;2.97;;
8887;SDS011;4480;52.370;9.748;2023-04-25T08:27:19;8.10;;;2.53;;
8887;SDS011;4480;52.370;9.748;2023-04-25T08:29:48;12.07;;;3.28;;
8887;SDS011;4480;52.370;9.748;2023-04-25T08:32:15;7.25;;;1.70;;
8887;SDS011;4480;52.370;9.748;2023-04-25T08:34:42;5.70;;;1.70;;
8887;SDS011;4480;52.370;9.748;2023-04-25T08:37:10;7.47;;;2.10;;
8887;SDS011;4480;52.370;9.748;2023-04-25T08:39:37;10.43;;;2.60;;
8887;SDS011;4480;52.370;9.748;2023-04-25T08:42:05;3.43;;;1.97;;
8887;SDS011;4480;52.370;9.748;2023-04-25T08:44:35;4.93;;;1.70;;
8887;SDS011;4480;52.370;9.748;2023-04-25T08:47:07;6.00;;;2.07;;
8887;SDS011;4480;52.370;9.748;2023-04-25T08:49:34;5.57;;;1.93;;
8887;SDS011;4480;52.370;9.748;2023-04-25T08:52:02;9.00;;;2.20;;
8887;SDS011;4480;52.370;9.748;2023-04-25T08:54:32;4.17;;;1.80;;
8887;SDS011;4480;52.370;9.748;2023-04-25T08:57:00;6.43;;;2.00;;
8887;SDS011;4480;52.370;9.748;2023-04-25T08:59:29;3.97;;;2.17;;
8887;SDS011;4480;52.370;9.748;2023-04-25T09:01:56;5.50;;;1.83;;
8887;SDS011;4480;52.370;9.748;2023-04-25T09:04:25;4.93;;;2.17;;
8887;SDS011;4480;52.370;9.748;2023-04-25T09:06:52;3.53;;;1.50;;
8887;SDS011;4480;52.370;9.748;2023-04-25T09:09:18;5.00;;;2.40;;
8887;SDS011;4480;52.370;9.748;2023-04-25T09:11:46;4.60;;;1.90;;
8887;SDS011;4480;52.370;9.748;2023-04-25T09:14:13;4.23;;;2.10;;
8887;SDS011;4480;52.370;9.748;2023-04-25T09:16:57;3.60;;;1.83;;
8887;SDS011;4480;52.370;9.748;2023-04-25T09:19:28;2.23;;;1.10;;
8887;SDS011;4480;52.370;9.748;2023-04-25T09:21:56;6.07;;;1.73;;
8887;SDS011;4480;52.370;9.748;2023-04-25T09:24:30;5.80;;;2.10;;
8887;SDS011;4480;52.370;9.748;2023-04-25T09:27:02;2.05;;;1.70;;
8887;SDS011;4480;52.370;9.748;2023-04-25T09:29:30;5.63;;;1.50;;
8887;SDS011;4480;52.370;9.748;2023-04-25T09:34:48;4.22;;;1.95;;
8887;SDS011;4480;52.370;9.748;2023-04-25T09:37:19;4.40;;;1.80;;
8887;SDS011;4480;52.370;9.748;2023-04-25T09:39:47;4.90;;;1.75;;
8887;SDS011;4480;52.370;9.748;2023-04-25T09:42:15;4.87;;;1.30;;
8887;SDS011;4480;52.370;9.748;2023-04-25T09:44:43;3.80;;;1.50;;
8887;SDS011;4480;52.370;9.748;2023-04-25T09:47:11;5.00;;;1.83;;
8887;SDS011;4480;52.370;9.748;2023-04-25T09:49:39;4.00;;;1.80;;
8887;SDS011;4480;52.370;9.748;2023-04-25T09:52:09;3.77;;;1.50;;
8887;SDS011;4480;52.370;9.748;2023-04-25T09:54:41;5.27;;;1.80;;
8887;SDS011;4480;52.370;9.748;2023-04-25T09:57:10;3.43;;;1.40;;
8887;SDS011;4480;52.370;9.748;2023-04-25T09:59:38;4.63;;;3.10;;
8887;SDS011;4480;52.370;9.748;2023-04-25T10:02:08;4.07;;;1.30;;
8887;SDS011;4480;52.370;9.748;2023-04-25T10:04:39;4.33;;;1.50;;
8887;SDS011;4480;52.370;9.748;2023-04-25T10:07:07;4.00;;;1.73;;
8887;SDS011;4480;52.370;9.748;2023-04-25T10:09:39;7.17;;;2.07;;
8887;SDS011;4480;52.370;9.748;2023-04-25T10:12:07;5.47;;;1.77;;
8887;SDS011;4480;52.370;9.748;2023-04-25T10:14:34;2.93;;;1.37;;
8887;SDS011;4480;52.370;9.748;2023-04-25T10:17:01;2.93;;;1.30;;
8887;SDS011;4480;52.370;9.748;2023-04-25T10:19:29;3.97;;;2.30;;
8887;SDS011;4480;52.370;9.748;2023-04-25T10:21:58;1.83;;;1.40;;
8887;SDS011;4480;52.370;9.748;2023-04-25T10:24:33;5.60;;;1.83;;
8887;SDS011;4480;52.370;9.748;2023-04-25T10:27:01;6.40;;;2.03;;
8887;SDS011;4480;52.370;9.748;2023-04-25T10:29:29;6.60;;;1.63;;
8887;SDS011;4480;52.370;9.748;2023-04-25T10:31:56;4.20;;;2.20;;
8887;SDS011;4480;52.370;9.748;2023-04-25T10:34:24;5.30;;;2.20;;
8887;SDS011;4480;52.370;9.748;2023-04-25T10:37:03;8.97;;;2.70;;
8887;SDS011;4480;52.370;9.748;2023-04-25T10:39:32;7.17;;;2.00;;
8887;SDS011;4480;52.370;9.748;2023-04-25T10:42:01;4.97;;;1.80;;
8887;SDS011;4480;52.370;9.748;2023-04-25T10:44:29;6.53;;;2.60;;
8887;SDS011;4480;52.370;9.748;2023-04-25T10:46:56;4.20;;;2.10;;
8887;SDS011;4480;52.370;9.748;2023-04-25T10:49:30;5.40;;;2.30;;
8887;SDS011;4480;52.370;9.748;2023-04-25T10:52:11;5.53;;;2.17;;
8887;SDS011;4480;52.370;9.748;2023-04-25T10:54:47;5.47;;;2.30;;
8887;SDS011;4480;52.370;9.748;2023-04-25T10:57:31;4.20;;;1.87;;
8887;SDS011;4480;52.370;9.748;2023-04-25T11:00:05;2.70;;;1.57;;
8887;SDS011;4480;52.370;9.748;2023-04-25T11:02:36;6.23;;;1.77;;
8887;SDS011;4480;52.370;9.748;2023-04-25T11:05:07;2.53;;;1.67;;
8887;SDS011;4480;52.370;9.748;2023-04-25T11:07:37;5.07;;;1.80;;
8887;SDS011;4480;52.370;9.748;2023-04-25T11:10:10;3.83;;;1.63;;
8887;SDS011;4480;52.370;9.748;2023-04-25T11:12:36;2.97;;;1.37;;
8887;SDS011;4480;52.370;9.748;2023-04-25T11:15:04;3.23;;;1.40;;
8887;SDS011;4480;52.370;9.748;2023-04-25T11:17:32;2.93;;;1.50;;
8887;SDS011;4480;52.370;9.748;2023-04-25T11:19:59;3.97;;;2.03;;
8887;SDS011;4480;52.370;9.748;2023-04-25T11:22:27;3.63;;;1.57;;
8887;SDS011;4480;52.370;9.748;2023-04-25T11:24:55;3.70;;;1.70;;
8887;SDS011;4480;52.370;9.748;2023-04-25T11:27:23;5.47;;;1.87;;
8887;SDS011;4480;52.370;9.748;2023-04-25T11:29:50;3.40;;;1.80;;
8887;SDS011;4480;52.370;9.748;2023-04-25T11:32:17;6.47;;;2.87;;
8887;SDS011;4480;52.370;9.748;2023-04-25T11:34:45;7.70;;;2.70;;
8887;SDS011;4480;52.370;9.748;2023-04-25T11:37:12;4.03;;;1.80;;
8887;SDS011;4480;52.370;9.748;2023-04-25T11:39:42;4.77;;;1.80;;
8887;SDS011;4480;52.370;9.748;2023-04-25T11:42:11;5.83;;;1.63;;
8887;SDS011;4480;52.370;9.748;2023-04-25T11:44:39;5.23;;;1.97;;
8887;SDS011;4480;52.370;9.748;2023-04-25T11:47:06;4.00;;;1.90;;
8887;SDS011;4480;52.370;9.748;2023-04-25T11:49:33;5.20;;;2.30;;
8887;SDS011;4480;52.370;9.748;2023-04-25T11:52:01;3.13;;;1.77;;
8887;SDS011;4480;52.370;9.748;2023-04-25T11:54:28;6.72;;;2.28;;
8887;SDS011;4480;52.370;9.748;2023-04-25T11:56:54;4.67;;;3.20;;
8887;SDS011;4480;52.370;9.748;2023-04-25T11:59:22;3.92;;;1.95;;
8887;SDS011;4480;52.370;9.748;2023-04-25T12:01:52;6.07;;;2.13;;
8887;SDS011;4480;52.370;9.748;2023-04-25T12:04:20;2.40;;;1.97;;
8887;SDS011;4480;52.370;9.748;2023-04-25T12:06:48;4.03;;;1.80;;
8887;SDS011;4480;52.370;9.748;2023-04-25T12:09:16;4.53;;;1.73;;
8887;SDS011;4480;52.370;9.748;2023-04-25T12:11:47;4.05;;;1.70;;
8887;SDS011;4480;52.370;9.748;2023-04-25T12:14:21;6.00;;;1.60;;
8887;SDS011;4480;52.370;9.748;2023-04-25T12:16:50;3.20;;;1.60;;
8887;SDS011;4480;52.370;9.748;2023-04-25T12:19:19;5.23;;;1.87;;
8887;SDS011;4480;52.370;9.748;2023-04-25T12:21:46;2.87;;;1.37;;
8887;SDS011;4480;52.370;9.748;2023-04-25T12:24:14;8.30;;;1.40;;
8887;SDS011;4480;52.370;9.748;2023-04-25T12:26:48;1.93;;;1.10;;
8887;SDS011;4480;52.370;9.748;2023-04-25T12:29:17;1.50;;;0.97;;
8887;SDS011;4480;52.370;9.748;2023-04-25T12:31:48;4.20;;;1.30;;
8887;SDS011;4480;52.370;9.748;2023-04-25T12:34:16;2.60;;;1.30;;
8887;SDS011;4480;52.370;9.748;2023-04-25T12:36:44;4.40;;;1.37;;
8887;SDS011;4480;52.370;9.748;2023-04-25T12:39:14;3.53;;;1.43;;
8887;SDS011;4480;52.370;9.748;2023-04-25T12:41:42;5.10;;;1.20;;
8887;SDS011;4480;52.370;9.748;2023-04-25T12:44:08;2.57;;;1.53;;
8887;SDS011;4480;52.370;9.748;2023-04-25T12:46:35;2.00;;;1.00;;
8887;SDS011;4480;52.370;9.748;2023-04-25T12:49:03;2.43;;;1.57;;
8887;SDS011;4480;52.370;9.748;2023-04-25T12:51:31;1.80;;;1.03;;
8887;SDS011;4480;52.370;9.748;2023-04-25T12:53:59;2.73;;;1.10;;
8887;SDS011;4480;52.370;9.748;2023-04-25T12:56:26;3.37;;;1.40;;
8887;SDS011;4480;52.370;9.748;2023-04-25T12:58:53;1.57;;;1.00;;
8887;SDS011;4480;52.370;9.748;2023-04-25T13:01:20;2.93;;;1.40;;
8887;SDS011;4480;52.370;9.748;2023-04-25T13:03:47;3.40;;;1.50;;
8887;SDS011;4480;52.370;9.748;2023-04-25T13:06:15;3.37;;;1.10;;
8887;SDS011;4480;52.370;9.748;2023-04-25T13:08:42;3.33;;;1.27;;
8887;SDS011;4480;52.370;9.748;2023-04-25T13:11:10;1.55;;;0.82;;
8887;SDS011;4480;52.370;9.748;2023-04-25T13:13:37;4.32;;;1.35;;
8887;SDS011;4480;52.370;9.748;2023-04-25T13:16:05;2.22;;;1.50;;
8887;SDS011;4480;52.370;9.748;2023-04-25T13:18:33;3.35;;;1.20;;
8887;SDS011;4480;52.370;9.748;2023-04-25T13:21:00;1.45;;;1.33;;
8887;SDS011;4480;52.370;9.748;2023-04-25T13:23:34;2.92;;;1.35;;
8887;SDS011;4480;52.370;9.748;2023-04-25T13:26:01;2.67;;;1.60;;
8887;SDS011;4480;52.370;9.748;2023-04-25T13:28:29;3.28;;;2.05;;
8887;SDS011;4480;52.370;9.748;2023-04-25T13:30:56;1.85;;;1.60;;
8887;SDS011;4480;52.370;9.748;2023-04-25T13:33:23;4.55;;;1.92;;
8887;SDS011;4480;52.370;9.748;2023-04-25T13:35:50;3.78;;;2.30;;
8887;SDS011;4480;52.370;9.748;2023-04-25T13:38:20;3.58;;;1.63;;
8887;SDS011;4480;52.370;9.748;2023-04-25T13:40:48;5.35;;;1.55;;
8887;SDS011;4480;52.370;9.748;2023-04-25T13:43:17;2.05;;;1.42;;
8887;SDS011;4480;52.370;9.748;2023-04-25T13:45:46;2.08;;;1.33;;
8887;SDS011;4480;52.370;9.748;2023-04-25T13:48:13;1.88;;;1.52;;
8887;SDS011;4480;52.370;9.748;2023-04-25T13:50:39;2.25;;;1.80;;
8887;SDS011;4480;52.370;9.748;2023-04-25T13:53:06;5.28;;;2.05;;
8887;SDS011;4480;52.370;9.748;2023-04-25T13:55:33;4.53;;;1.52;;
8887;SDS011;4480;52.370;9.748;2023-04-25T13:58:01;5.20;;;1.70;;
8887;SDS011;4480;52.370;9.748;2023-04-25T14:00:32;3.73;;;2.00;;
8887;SDS011;4480;52.370;9.748;2023-04-25T14:03:01;4.20;;;1.75;;
8887;SDS011;4480;52.370;9.748;2023-04-25T14:05:31;3.58;;;1.80;;
8887;SDS011;4480;52.370;9.748;2023-04-25T14:08:02;2.70;;;1.70;;
8887;SDS011;4480;52.370;9.748;2023-04-25T14:10:30;1.90;;;1.58;;
8887;SDS011;4480;52.370;9.748;2023-04-25T14:12:59;6.75;;;2.05;;
8887;SDS011;4480;52.370;9.748;2023-04-25T14:15:30;3.35;;;2.20;;
8887;SDS011;4480;52.370;9.748;2023-04-25T14:17:57;3.35;;;2.47;;
8887;SDS011;4480;52.370;9.748;2023-04-25T14:20:25;4.43;;;2.33;;
8887;SDS011;4480;52.370;9.748;2023-04-25T14:22:52;2.88;;;1.80;;
8887;SDS011;4480;52.370;9.748;2023-04-25T14:25:21;7.03;;;1.58;;
8887;SDS011;4480;52.370;9.748;2023-04-25T14:27:47;3.22;;;1.70;;
8887;SDS011;4480;52.370;9.748;2023-04-25T14:30:15;2.72;;;1.70;;
8887;SDS011;4480;52.370;9.748;2023-04-25T14:32:43;7.38;;;2.00;;
8887;SDS011;4480;52.370;9.748;2023-04-25T14:35:10;3.08;;;1.92;;
8887;SDS011;4480;52.370;9.748;2023-04-25T14:37:38;2.58;;;1.80;;
8887;SDS011;4480;52.370;9.748;2023-04-25T14:40:05;4.75;;;2.03;;
8887;SDS011;4480;52.370;9.748;2023-04-25T14:42:35;3.13;;;1.60;;
8887;SDS011;4480;52.370;9.748;2023-04-25T14:45:02;4.60;;;2.03;;
8887;SDS011;4480;52.370;9.748;2023-04-25T14:47:29;2.60;;;1.52;;
8887;SDS011;4480;52.370;9.748;2023-04-25T14:49:56;6.07;;;1.50;;
8887;SDS011;4480;52.370;9.748;2023-04-25T14:52:23;2.55;;;1.63;;
8887;SDS011;4480;52.370;9.748;2023-04-25T14:54:51;4.07;;;1.55;;
8887;SDS011;4480;52.370;9.748;2023-04-25T14:57:18;5.63;;;2.10;;
8887;SDS011;4480;52.370;9.748;2023-04-25T14:59:45;3.90;;;1.60;;
8887;SDS011;4480;52.370;9.748;2023-04-25T15:02:12;3.25;;;1.13;;
8887;SDS011;4480;52.370;9.748;2023-04-25T15:04:39;5.85;;;1.40;;
8887;SDS011;4480;52.370;9.748;2023-04-25T15:07:06;2.80;;;2.13;;
8887;SDS011;4480;52.370;9.748;2023-04-25T15:09:32;4.70;;;2.50;;
8887;SDS011;4480;52.370;9.748;2023-04-25T15:12:00;3.17;;;1.75;;
8887;SDS011;4480;52.370;9.748;2023-04-25T15:14:28;2.97;;;2.03;;
8887;SDS011;4480;52.370;9.748;2023-04-25T15:16:55;4.35;;;2.17;;
8887;SDS011;4480;52.370;9.748;2023-04-25T15:19:22;6.47;;;1.80;;
8887;SDS011;4480;52.370;9.748;2023-04-25T15:21:49;3.78;;;1.90;;